sensor_id;sensor_type;location;lat;lon;timestamp;P1;durP1;ratioP1;P2;durP2;ratioP2
75774;SDS011;64505;51.458;7.556;2022-11-22T00:00:22;5.32;;;1.55;;
75774;SDS011;64505;51.458;7.556;2022-11-22T00:02:25;4.45;;;1.65;;
75774;SDS011;64505;51.458;7.556;2022-11-22T00:04:27;4.60;;;2.05;;
75774;SDS011;64505;51.458;7.556;2022-11-22T00:06:28;4.15;;;1.20;;
75774;SDS011;64505;51.458;7.556;2022-11-22T00:08:30;3.70;;;1.90;;
75774;SDS011;64505;51.458;7.556;2022-11-22T00:10:33;3.38;;;1.38;;
75774;SDS011;64505;51.458;7.556;2022-11-22T00:12:35;3.90;;;1.60;;
75774;SDS011;64505;51.458;7.556;2022-11-22T00:14:36;2.78;;;1.70;;
75774;SDS011;64505;51.458;7.556;2022-11-22T00:16:38;3.15;;;1.35;;
75774;SDS011;64505;51.458;7.556;2022-11-22T00:18:39;2.60;;;1.00;;
75774;SDS011;64505;51.458;7.556;2022-11-22T00:20:41;5.65;;;1.95;;
75774;SDS011;64505;51.458;7.556;2022-11-22T00:22:42;3.65;;;1.65;;
75774;SDS011;64505;51.458;7.556;2022-11-22T00:24:45;3.97;;;1.67;;
75774;SDS011;64505;51.458;7.556;2022-11-22T00:26:47;4.05;;;1.42;;
75774;SDS011;64505;51.458;7.556;2022-11-22T00:28:49;3.97;;;1.73;;
75774;SDS011;64505;51.458;7.556;2022-11-22T00:30:50;4.40;;;1.58;;
75774;SDS011;64505;51.458;7.556;2022-11-22T00:32:52;4.75;;;1.95;;
75774;SDS011;64505;51.458;7.556;2022-11-22T00:34:53;4.80;;;1.83;;
75774;SDS011;64505;51.458;7.556;2022-11-22T00:36:55;2.58;;;1.52;;
75774;SDS011;64505;51.458;7.556;2022-11-22T00:38:56;3.35;;;1.70;;
75774;SDS011;64505;51.458;7.556;2022-11-22T00:40:57;1.92;;;1.20;;
75774;SDS011;64505;51.458;7.556;2022-11-22T00:42:59;4.45;;;1.40;;
75774;SDS011;64505;51.458;7.556;2022-11-22T00:45:01;3.17;;;1.33;;
75774;SDS011;64505;51.458;7.556;2022-11-22T00:47:02;4.53;;;1.48;;
75774;SDS011;64505;51.458;7.556;2022-11-22T00:49:04;3.28;;;1.25;;
75774;SDS011;64505;51.458;7.556;2022-11-22T00:51:05;4.18;;;1.13;;
75774;SDS011;64505;51.458;7.556;2022-11-22T00:53:07;3.88;;;1.40;;
75774;SDS011;64505;51.458;7.556;2022-11-22T00:55:08;3.17;;;1.30;;
75774;SDS011;64505;51.458;7.556;2022-11-22T00:57:10;4.18;;;1.52;;
75774;SDS011;64505;51.458;7.556;2022-11-22T00:59:11;4.22;;;1.30;;
75774;SDS011;64505;51.458;7.556;2022-11-22T01:01:13;3.95;;;1.17;;
75774;SDS011;64505;51.458;7.556;2022-11-22T01:03:15;3.63;;;1.35;;
75774;SDS011;64505;51.458;7.556;2022-11-22T01:05:16;2.78;;;1.33;;
75774;SDS011;64505;51.458;7.556;2022-11-22T01:07:18;2.67;;;1.20;;
75774;SDS011;64505;51.458;7.556;2022-11-22T01:09:20;2.25;;;1.23;;
75774;SDS011;64505;51.458;7.556;2022-11-22T01:11:23;1.90;;;1.02;;
75774;SDS011;64505;51.458;7.556;2022-11-22T01:13:24;3.22;;;1.27;;
75774;SDS011;64505;51.458;7.556;2022-11-22T01:15:27;3.90;;;1.38;;
75774;SDS011;64505;51.458;7.556;2022-11-22T01:17:28;3.58;;;1.52;;
75774;SDS011;64505;51.458;7.556;2022-11-22T01:19:30;2.42;;;1.20;;
75774;SDS011;64505;51.458;7.556;2022-11-22T01:21:32;1.98;;;1.02;;
75774;SDS011;64505;51.458;7.556;2022-11-22T01:23:34;3.05;;;1.17;;
75774;SDS011;64505;51.458;7.556;2022-11-22T01:25:36;4.22;;;1.30;;
75774;SDS011;64505;51.458;7.556;2022-11-22T01:27:37;2.28;;;1.20;;
75774;SDS011;64505;51.458;7.556;2022-11-22T01:29:38;2.45;;;1.10;;
75774;SDS011;64505;51.458;7.556;2022-11-22T01:31:40;2.88;;;1.73;;
75774;SDS011;64505;51.458;7.556;2022-11-22T01:33:41;3.08;;;1.58;;
75774;SDS011;64505;51.458;7.556;2022-11-22T01:35:43;2.70;;;1.40;;
75774;SDS011;64505;51.458;7.556;2022-11-22T01:37:44;3.00;;;1.40;;
75774;SDS011;64505;51.458;7.556;2022-11-22T01:39:46;2.97;;;1.70;;
75774;SDS011;64505;51.458;7.556;2022-11-22T01:41:47;3.17;;;1.60;;
75774;SDS011;64505;51.458;7.556;2022-11-22T01:43:49;3.83;;;1.20;;
75774;SDS011;64505;51.458;7.556;2022-11-22T01:45:51;4.13;;;1.50;;
75774;SDS011;64505;51.458;7.556;2022-11-22T01:47:54;3.00;;;1.30;;
75774;SDS011;64505;51.458;7.556;2022-11-22T01:50:04;2.90;;;1.40;;
75774;SDS011;64505;51.458;7.556;2022-11-22T01:52:12;3.05;;;1.25;;
75774;SDS011;64505;51.458;7.556;2022-11-22T01:54:19;3.80;;;1.60;;
75774;SDS011;64505;51.458;7.556;2022-11-22T01:56:23;4.68;;;1.73;;
75774;SDS011;64505;51.458;7.556;2022-11-22T01:58:28;4.20;;;1.50;;
75774;SDS011;64505;51.458;7.556;2022-11-22T02:00:32;5.85;;;1.60;;
75774;SDS011;64505;51.458;7.556;2022-11-22T02:02:33;3.15;;;1.40;;
75774;SDS011;64505;51.458;7.556;2022-11-22T02:04:35;4.32;;;2.05;;
75774;SDS011;64505;51.458;7.556;2022-11-22T02:06:45;4.38;;;1.60;;
75774;SDS011;64505;51.458;7.556;2022-11-22T02:08:59;5.57;;;2.35;;
75774;SDS011;64505;51.458;7.556;2022-11-22T02:11:06;3.83;;;1.83;;
75774;SDS011;64505;51.458;7.556;2022-11-22T02:13:09;4.97;;;2.20;;
75774;SDS011;64505;51.458;7.556;2022-11-22T02:15:13;5.82;;;1.73;;
75774;SDS011;64505;51.458;7.556;2022-11-22T02:17:14;4.55;;;1.55;;
75774;SDS011;64505;51.458;7.556;2022-11-22T02:19:25;7.32;;;2.17;;
75774;SDS011;64505;51.458;7.556;2022-11-22T02:21:33;4.43;;;1.42;;
75774;SDS011;64505;51.458;7.556;2022-11-22T02:25:52;3.53;;;1.65;;
75774;SDS011;64505;51.458;7.556;2022-11-22T02:27:55;4.28;;;1.63;;
75774;SDS011;64505;51.458;7.556;2022-11-22T02:29:56;3.92;;;1.70;;
75774;SDS011;64505;51.458;7.556;2022-11-22T02:31:58;4.47;;;1.83;;
75774;SDS011;64505;51.458;7.556;2022-11-22T02:33:59;4.43;;;1.50;;
75774;SDS011;64505;51.458;7.556;2022-11-22T02:36:02;4.43;;;1.80;;
75774;SDS011;64505;51.458;7.556;2022-11-22T02:38:05;2.42;;;1.20;;
75774;SDS011;64505;51.458;7.556;2022-11-22T02:40:12;4.53;;;1.60;;
75774;SDS011;64505;51.458;7.556;2022-11-22T02:42:15;3.67;;;1.50;;
75774;SDS011;64505;51.458;7.556;2022-11-22T02:44:16;2.40;;;1.60;;
75774;SDS011;64505;51.458;7.556;2022-11-22T02:46:19;3.05;;;1.75;;
75774;SDS011;64505;51.458;7.556;2022-11-22T02:48:23;5.65;;;1.85;;
75774;SDS011;64505;51.458;7.556;2022-11-22T02:50:24;6.20;;;2.03;;
75774;SDS011;64505;51.458;7.556;2022-11-22T02:52:25;3.20;;;1.48;;
75774;SDS011;64505;51.458;7.556;2022-11-22T02:54:27;6.10;;;1.95;;
75774;SDS011;64505;51.458;7.556;2022-11-22T02:56:28;5.15;;;2.05;;
75774;SDS011;64505;51.458;7.556;2022-11-22T02:58:30;4.60;;;1.95;;
75774;SDS011;64505;51.458;7.556;2022-11-22T03:00:32;3.78;;;1.60;;
75774;SDS011;64505;51.458;7.556;2022-11-22T03:02:34;5.97;;;1.83;;
75774;SDS011;64505;51.458;7.556;2022-11-22T03:04:35;3.72;;;1.80;;
75774;SDS011;64505;51.458;7.556;2022-11-22T03:06:37;5.40;;;1.95;;
75774;SDS011;64505;51.458;7.556;2022-11-22T03:08:38;6.68;;;2.13;;
75774;SDS011;64505;51.458;7.556;2022-11-22T03:10:39;6.05;;;1.55;;
75774;SDS011;64505;51.458;7.556;2022-11-22T03:12:41;4.60;;;2.00;;
75774;SDS011;64505;51.458;7.556;2022-11-22T03:14:42;3.97;;;1.92;;
75774;SDS011;64505;51.458;7.556;2022-11-22T03:16:44;3.90;;;1.80;;
75774;SDS011;64505;51.458;7.556;2022-11-22T03:18:47;4.45;;;2.47;;
75774;SDS011;64505;51.458;7.556;2022-11-22T03:20:48;8.27;;;1.95;;
75774;SDS011;64505;51.458;7.556;2022-11-22T03:22:50;4.57;;;2.10;;
75774;SDS011;64505;51.458;7.556;2022-11-22T03:24:51;4.63;;;1.80;;
75774;SDS011;64505;51.458;7.556;2022-11-22T03:26:53;4.78;;;1.80;;
75774;SDS011;64505;51.458;7.556;2022-11-22T03:28:54;5.65;;;1.92;;
75774;SDS011;64505;51.458;7.556;2022-11-22T03:30:56;7.18;;;2.40;;
75774;SDS011;64505;51.458;7.556;2022-11-22T03:32:57;6.90;;;1.85;;
75774;SDS011;64505;51.458;7.556;2022-11-22T03:34:59;5.55;;;1.90;;
75774;SDS011;64505;51.458;7.556;2022-11-22T03:37:00;4.95;;;1.52;;
75774;SDS011;64505;51.458;7.556;2022-11-22T03:39:02;4.55;;;1.90;;
75774;SDS011;64505;51.458;7.556;2022-11-22T03:41:03;4.80;;;1.92;;
75774;SDS011;64505;51.458;7.556;2022-11-22T03:43:05;5.88;;;2.08;;
75774;SDS011;64505;51.458;7.556;2022-11-22T03:45:06;5.25;;;1.88;;
75774;SDS011;64505;51.458;7.556;2022-11-22T03:47:08;5.03;;;2.00;;
75774;SDS011;64505;51.458;7.556;2022-11-22T03:49:09;4.63;;;2.03;;
75774;SDS011;64505;51.458;7.556;2022-11-22T03:51:12;6.28;;;2.63;;
75774;SDS011;64505;51.458;7.556;2022-11-22T03:53:14;10.77;;;2.30;;
75774;SDS011;64505;51.458;7.556;2022-11-22T03:55:15;7.18;;;2.03;;
75774;SDS011;64505;51.458;7.556;2022-11-22T03:57:17;8.38;;;2.45;;
75774;SDS011;64505;51.458;7.556;2022-11-22T03:59:19;7.75;;;2.28;;
75774;SDS011;64505;51.458;7.556;2022-11-22T04:01:20;6.13;;;2.10;;
75774;SDS011;64505;51.458;7.556;2022-11-22T04:03:22;9.35;;;2.40;;
75774;SDS011;64505;51.458;7.556;2022-11-22T04:05:23;8.65;;;2.42;;
75774;SDS011;64505;51.458;7.556;2022-11-22T04:07:25;8.23;;;2.15;;
75774;SDS011;64505;51.458;7.556;2022-11-22T04:09:26;8.43;;;2.55;;
75774;SDS011;64505;51.458;7.556;2022-11-22T04:11:28;7.40;;;2.10;;
75774;SDS011;64505;51.458;7.556;2022-11-22T04:13:30;9.57;;;2.75;;
75774;SDS011;64505;51.458;7.556;2022-11-22T04:15:50;5.80;;;2.15;;
75774;SDS011;64505;51.458;7.556;2022-11-22T04:17:52;7.22;;;2.45;;
75774;SDS011;64505;51.458;7.556;2022-11-22T04:19:53;6.57;;;1.88;;
75774;SDS011;64505;51.458;7.556;2022-11-22T04:22:20;5.60;;;1.83;;
75774;SDS011;64505;51.458;7.556;2022-11-22T04:24:22;6.22;;;1.95;;
75774;SDS011;64505;51.458;7.556;2022-11-22T04:26:42;5.25;;;2.30;;
75774;SDS011;64505;51.458;7.556;2022-11-22T04:28:43;8.23;;;1.70;;
75774;SDS011;64505;51.458;7.556;2022-11-22T04:31:04;4.45;;;2.10;;
75774;SDS011;64505;51.458;7.556;2022-11-22T04:33:24;7.55;;;2.10;;
75774;SDS011;64505;51.458;7.556;2022-11-22T04:35:26;6.97;;;1.80;;
75774;SDS011;64505;51.458;7.556;2022-11-22T04:37:27;6.90;;;1.92;;
75774;SDS011;64505;51.458;7.556;2022-11-22T04:39:28;4.82;;;1.52;;
75774;SDS011;64505;51.458;7.556;2022-11-22T04:41:30;8.93;;;1.92;;
75774;SDS011;64505;51.458;7.556;2022-11-22T04:43:32;6.97;;;1.75;;
75774;SDS011;64505;51.458;7.556;2022-11-22T04:45:52;8.98;;;2.15;;
75774;SDS011;64505;51.458;7.556;2022-11-22T04:47:53;6.45;;;1.83;;
75774;SDS011;64505;51.458;7.556;2022-11-22T04:50:01;8.68;;;2.13;;
75774;SDS011;64505;51.458;7.556;2022-11-22T04:52:03;9.18;;;2.17;;
75774;SDS011;64505;51.458;7.556;2022-11-22T04:54:24;10.93;;;1.95;;
75774;SDS011;64505;51.458;7.556;2022-11-22T04:56:25;5.10;;;1.25;;
75774;SDS011;64505;51.458;7.556;2022-11-22T04:58:27;7.28;;;1.90;;
75774;SDS011;64505;51.458;7.556;2022-11-22T05:00:28;6.53;;;1.80;;
75774;SDS011;64505;51.458;7.556;2022-11-22T05:02:30;7.72;;;1.60;;
75774;SDS011;64505;51.458;7.556;2022-11-22T05:04:31;10.75;;;2.38;;
75774;SDS011;64505;51.458;7.556;2022-11-22T05:06:33;5.38;;;1.27;;
75774;SDS011;64505;51.458;7.556;2022-11-22T05:08:34;10.10;;;1.83;;
75774;SDS011;64505;51.458;7.556;2022-11-22T05:10:36;5.60;;;1.90;;
75774;SDS011;64505;51.458;7.556;2022-11-22T05:12:56;8.55;;;1.92;;
75774;SDS011;64505;51.458;7.556;2022-11-22T05:14:58;9.07;;;1.80;;
75774;SDS011;64505;51.458;7.556;2022-11-22T05:16:59;5.15;;;1.90;;
75774;SDS011;64505;51.458;7.556;2022-11-22T05:19:01;6.63;;;2.00;;
75774;SDS011;64505;51.458;7.556;2022-11-22T05:21:03;6.72;;;1.50;;
75774;SDS011;64505;51.458;7.556;2022-11-22T05:23:05;10.02;;;1.70;;
75774;SDS011;64505;51.458;7.556;2022-11-22T05:27:26;4.88;;;1.45;;
75774;SDS011;64505;51.458;7.556;2022-11-22T05:29:28;7.10;;;1.70;;
75774;SDS011;64505;51.458;7.556;2022-11-22T05:31:31;4.97;;;1.83;;
75774;SDS011;64505;51.458;7.556;2022-11-22T05:33:34;5.55;;;1.50;;
75774;SDS011;64505;51.458;7.556;2022-11-22T05:35:36;8.15;;;1.70;;
75774;SDS011;64505;51.458;7.556;2022-11-22T05:37:37;3.95;;;1.73;;
75774;SDS011;64505;51.458;7.556;2022-11-22T05:39:39;6.88;;;2.17;;
75774;SDS011;64505;51.458;7.556;2022-11-22T05:41:43;10.52;;;2.13;;
75774;SDS011;64505;51.458;7.556;2022-11-22T05:43:56;6.68;;;1.80;;
75774;SDS011;64505;51.458;7.556;2022-11-22T05:46:11;7.35;;;1.75;;
75774;SDS011;64505;51.458;7.556;2022-11-22T05:48:24;5.68;;;1.83;;
75774;SDS011;64505;51.458;7.556;2022-11-22T05:50:26;8.10;;;1.77;;
75774;SDS011;64505;51.458;7.556;2022-11-22T05:52:28;5.10;;;1.67;;
75774;SDS011;64505;51.458;7.556;2022-11-22T05:54:29;5.68;;;1.88;;
75774;SDS011;64505;51.458;7.556;2022-11-22T05:56:31;5.60;;;1.63;;
75774;SDS011;64505;51.458;7.556;2022-11-22T05:58:32;9.07;;;1.58;;
75774;SDS011;64505;51.458;7.556;2022-11-22T06:00:34;5.68;;;1.42;;
75774;SDS011;64505;51.458;7.556;2022-11-22T06:02:35;6.55;;;1.60;;
75774;SDS011;64505;51.458;7.556;2022-11-22T06:04:37;7.10;;;1.77;;
75774;SDS011;64505;51.458;7.556;2022-11-22T06:06:38;6.72;;;1.83;;
75774;SDS011;64505;51.458;7.556;2022-11-22T06:08:40;5.85;;;1.73;;
75774;SDS011;64505;51.458;7.556;2022-11-22T06:10:45;7.32;;;1.50;;
75774;SDS011;64505;51.458;7.556;2022-11-22T06:12:46;4.55;;;1.40;;
75774;SDS011;64505;51.458;7.556;2022-11-22T06:14:47;4.50;;;1.60;;
75774;SDS011;64505;51.458;7.556;2022-11-22T06:16:50;6.38;;;1.65;;
75774;SDS011;64505;51.458;7.556;2022-11-22T06:18:52;7.50;;;1.90;;
75774;SDS011;64505;51.458;7.556;2022-11-22T06:21:01;6.82;;;1.83;;
75774;SDS011;64505;51.458;7.556;2022-11-22T06:23:04;6.25;;;1.80;;
75774;SDS011;64505;51.458;7.556;2022-11-22T06:25:05;6.20;;;2.03;;
75774;SDS011;64505;51.458;7.556;2022-11-22T06:27:07;7.82;;;1.83;;
75774;SDS011;64505;51.458;7.556;2022-11-22T06:29:09;8.00;;;1.80;;
75774;SDS011;64505;51.458;7.556;2022-11-22T06:31:23;4.57;;;1.58;;
75774;SDS011;64505;51.458;7.556;2022-11-22T06:33:26;7.35;;;1.70;;
75774;SDS011;64505;51.458;7.556;2022-11-22T06:35:27;10.73;;;2.08;;
75774;SDS011;64505;51.458;7.556;2022-11-22T06:37:29;5.95;;;1.55;;
75774;SDS011;64505;51.458;7.556;2022-11-22T06:39:30;5.47;;;1.67;;
75774;SDS011;64505;51.458;7.556;2022-11-22T06:41:33;4.32;;;1.67;;
75774;SDS011;64505;51.458;7.556;2022-11-22T06:43:37;5.55;;;1.58;;
75774;SDS011;64505;51.458;7.556;2022-11-22T06:45:48;5.45;;;1.42;;
75774;SDS011;64505;51.458;7.556;2022-11-22T06:47:49;12.55;;;2.13;;
75774;SDS011;64505;51.458;7.556;2022-11-22T06:49:51;8.50;;;1.95;;
75774;SDS011;64505;51.458;7.556;2022-11-22T06:51:52;10.57;;;1.88;;
75774;SDS011;64505;51.458;7.556;2022-11-22T06:53:54;6.18;;;1.63;;
75774;SDS011;64505;51.458;7.556;2022-11-22T06:56:39;10.48;;;1.80;;
75774;SDS011;64505;51.458;7.556;2022-11-22T06:58:21;6.20;;;1.75;;
75774;SDS011;64505;51.458;7.556;2022-11-22T07:00:23;7.78;;;2.13;;
75774;SDS011;64505;51.458;7.556;2022-11-22T07:02:24;6.70;;;1.92;;
75774;SDS011;64505;51.458;7.556;2022-11-22T07:04:25;7.43;;;1.00;;
75774;SDS011;64505;51.458;7.556;2022-11-22T07:06:28;7.32;;;2.00;;
75774;SDS011;64505;51.458;7.556;2022-11-22T07:08:31;6.22;;;1.77;;
75774;SDS011;64505;51.458;7.556;2022-11-22T07:10:35;10.13;;;2.15;;
75774;SDS011;64505;51.458;7.556;2022-11-22T07:12:37;6.03;;;1.65;;
75774;SDS011;64505;51.458;7.556;2022-11-22T07:14:38;8.88;;;2.33;;
75774;SDS011;64505;51.458;7.556;2022-11-22T07:16:39;9.82;;;2.03;;
75774;SDS011;64505;51.458;7.556;2022-11-22T07:18:41;4.82;;;1.70;;
75774;SDS011;64505;51.458;7.556;2022-11-22T07:20:43;10.35;;;2.35;;
75774;SDS011;64505;51.458;7.556;2022-11-22T07:22:45;8.32;;;2.17;;
75774;SDS011;64505;51.458;7.556;2022-11-22T07:24:50;5.32;;;1.40;;
75774;SDS011;64505;51.458;7.556;2022-11-22T07:26:52;6.30;;;1.55;;
75774;SDS011;64505;51.458;7.556;2022-11-22T07:28:53;5.70;;;1.67;;
75774;SDS011;64505;51.458;7.556;2022-11-22T07:30:58;7.78;;;2.25;;
75774;SDS011;64505;51.458;7.556;2022-11-22T07:33:04;7.15;;;2.03;;
75774;SDS011;64505;51.458;7.556;2022-11-22T07:35:06;6.57;;;1.67;;
75774;SDS011;64505;51.458;7.556;2022-11-22T07:37:07;10.55;;;1.58;;
75774;SDS011;64505;51.458;7.556;2022-11-22T07:39:09;7.60;;;1.60;;
75774;SDS011;64505;51.458;7.556;2022-11-22T07:41:11;10.90;;;2.00;;
75774;SDS011;64505;51.458;7.556;2022-11-22T07:43:13;6.95;;;1.45;;
75774;SDS011;64505;51.458;7.556;2022-11-22T07:45:15;6.55;;;1.52;;
75774;SDS011;64505;51.458;7.556;2022-11-22T07:47:16;6.53;;;1.77;;
75774;SDS011;64505;51.458;7.556;2022-11-22T07:49:23;10.00;;;2.35;;
75774;SDS011;64505;51.458;7.556;2022-11-22T07:51:24;6.75;;;2.03;;
75774;SDS011;64505;51.458;7.556;2022-11-22T07:53:26;10.40;;;2.08;;
75774;SDS011;64505;51.458;7.556;2022-11-22T07:55:29;6.75;;;1.95;;
75774;SDS011;64505;51.458;7.556;2022-11-22T07:57:31;10.55;;;1.80;;
75774;SDS011;64505;51.458;7.556;2022-11-22T07:59:33;9.90;;;2.03;;
75774;SDS011;64505;51.458;7.556;2022-11-22T08:01:35;7.13;;;1.92;;
75774;SDS011;64505;51.458;7.556;2022-11-22T08:03:36;8.13;;;2.08;;
75774;SDS011;64505;51.458;7.556;2022-11-22T08:05:38;9.88;;;1.88;;
75774;SDS011;64505;51.458;7.556;2022-11-22T08:07:44;5.05;;;1.63;;
75774;SDS011;64505;51.458;7.556;2022-11-22T08:09:49;7.88;;;1.60;;
75774;SDS011;64505;51.458;7.556;2022-11-22T08:11:50;9.93;;;1.50;;
75774;SDS011;64505;51.458;7.556;2022-11-22T08:13:51;7.28;;;1.63;;
75774;SDS011;64505;51.458;7.556;2022-11-22T08:15:53;8.57;;;1.90;;
75774;SDS011;64505;51.458;7.556;2022-11-22T08:17:59;11.30;;;1.90;;
75774;SDS011;64505;51.458;7.556;2022-11-22T08:20:01;19.13;;;1.90;;
75774;SDS011;64505;51.458;7.556;2022-11-22T08:22:02;3.50;;;1.42;;
75774;SDS011;64505;51.458;7.556;2022-11-22T08:24:04;7.28;;;1.45;;
75774;SDS011;64505;51.458;7.556;2022-11-22T08:26:07;10.82;;;1.80;;
75774;SDS011;64505;51.458;7.556;2022-11-22T08:28:09;10.63;;;1.90;;
75774;SDS011;64505;51.458;7.556;2022-11-22T08:30:11;9.70;;;2.63;;
75774;SDS011;64505;51.458;7.556;2022-11-22T08:32:12;6.63;;;1.08;;
75774;SDS011;64505;51.458;7.556;2022-11-22T08:34:14;10.38;;;2.50;;
75774;SDS011;64505;51.458;7.556;2022-11-22T08:36:15;9.75;;;1.60;;
75774;SDS011;64505;51.458;7.556;2022-11-22T08:38:17;4.82;;;1.50;;
75774;SDS011;64505;51.458;7.556;2022-11-22T08:40:18;4.97;;;1.23;;
75774;SDS011;64505;51.458;7.556;2022-11-22T08:42:20;10.48;;;2.13;;
75774;SDS011;64505;51.458;7.556;2022-11-22T08:44:21;4.25;;;1.17;;
75774;SDS011;64505;51.458;7.556;2022-11-22T08:46:22;8.95;;;1.55;;
75774;SDS011;64505;51.458;7.556;2022-11-22T08:48:24;5.38;;;1.35;;
75774;SDS011;64505;51.458;7.556;2022-11-22T08:50:26;6.60;;;1.60;;
75774;SDS011;64505;51.458;7.556;2022-11-22T08:52:28;8.20;;;2.25;;
75774;SDS011;64505;51.458;7.556;2022-11-22T08:54:29;8.27;;;1.25;;
75774;SDS011;64505;51.458;7.556;2022-11-22T08:56:37;7.05;;;1.23;;
75774;SDS011;64505;51.458;7.556;2022-11-22T08:58:39;5.43;;;1.20;;
75774;SDS011;64505;51.458;7.556;2022-11-22T09:00:41;4.30;;;1.20;;
75774;SDS011;64505;51.458;7.556;2022-11-22T09:02:43;5.63;;;1.48;;
75774;SDS011;64505;51.458;7.556;2022-11-22T09:04:45;8.20;;;1.55;;
75774;SDS011;64505;51.458;7.556;2022-11-22T09:06:46;8.57;;;1.50;;
75774;SDS011;64505;51.458;7.556;2022-11-22T09:09:07;8.02;;;1.23;;
75774;SDS011;64505;51.458;7.556;2022-11-22T09:11:29;6.85;;;1.58;;
75774;SDS011;64505;51.458;7.556;2022-11-22T09:13:30;8.45;;;1.23;;
75774;SDS011;64505;51.458;7.556;2022-11-22T09:15:32;4.93;;;1.45;;
75774;SDS011;64505;51.458;7.556;2022-11-22T09:17:34;5.95;;;1.25;;
75774;SDS011;64505;51.458;7.556;2022-11-22T09:19:35;6.75;;;1.42;;
75774;SDS011;64505;51.458;7.556;2022-11-22T09:21:37;6.43;;;1.80;;
75774;SDS011;64505;51.458;7.556;2022-11-22T09:23:38;6.10;;;1.75;;
75774;SDS011;64505;51.458;7.556;2022-11-22T09:25:40;4.60;;;1.20;;
75774;SDS011;64505;51.458;7.556;2022-11-22T09:27:41;6.05;;;1.55;;
75774;SDS011;64505;51.458;7.556;2022-11-22T09:29:42;3.28;;;1.50;;
75774;SDS011;64505;51.458;7.556;2022-11-22T09:31:44;7.07;;;1.50;;
75774;SDS011;64505;51.458;7.556;2022-11-22T09:33:46;8.75;;;1.80;;
75774;SDS011;64505;51.458;7.556;2022-11-22T09:35:49;5.70;;;1.35;;
75774;SDS011;64505;51.458;7.556;2022-11-22T09:37:50;7.47;;;1.88;;
75774;SDS011;64505;51.458;7.556;2022-11-22T09:39:52;7.80;;;2.05;;
75774;SDS011;64505;51.458;7.556;2022-11-22T09:50:54;5.20;;;1.20;;
75774;SDS011;64505;51.458;7.556;2022-11-22T09:57:29;7.47;;;1.45;;
75774;SDS011;64505;51.458;7.556;2022-11-22T09:59:36;5.65;;;1.73;;
75774;SDS011;64505;51.458;7.556;2022-11-22T10:01:56;7.57;;;1.38;;
75774;SDS011;64505;51.458;7.556;2022-11-22T10:04:20;6.13;;;1.50;;
75774;SDS011;64505;51.458;7.556;2022-11-22T10:06:28;8.23;;;1.65;;
75774;SDS011;64505;51.458;7.556;2022-11-22T10:08:39;6.43;;;1.65;;
75774;SDS011;64505;51.458;7.556;2022-11-22T10:10:58;9.88;;;1.92;;
75774;SDS011;64505;51.458;7.556;2022-11-22T10:13:06;3.83;;;1.33;;
75774;SDS011;64505;51.458;7.556;2022-11-22T10:15:24;4.80;;;1.35;;
75774;SDS011;64505;51.458;7.556;2022-11-22T10:17:53;4.88;;;1.13;;
75774;SDS011;64505;51.458;7.556;2022-11-22T10:20:09;9.13;;;1.55;;
75774;SDS011;64505;51.458;7.556;2022-11-22T10:22:14;5.40;;;1.10;;
75774;SDS011;64505;51.458;7.556;2022-11-22T10:24:16;10.38;;;1.70;;
75774;SDS011;64505;51.458;7.556;2022-11-22T10:26:20;8.50;;;1.50;;
75774;SDS011;64505;51.458;7.556;2022-11-22T10:31:28;7.32;;;1.40;;
75774;SDS011;64505;51.458;7.556;2022-11-22T10:41:01;4.75;;;1.42;;
75774;SDS011;64505;51.458;7.556;2022-11-22T10:45:40;3.90;;;1.10;;
75774;SDS011;64505;51.458;7.556;2022-11-22T10:52:21;4.63;;;1.30;;
75774;SDS011;64505;51.458;7.556;2022-11-22T10:57:04;6.28;;;1.00;;
75774;SDS011;64505;51.458;7.556;2022-11-22T11:03:44;7.03;;;1.38;;
75774;SDS011;64505;51.458;7.556;2022-11-22T11:05:57;6.43;;;1.27;;
75774;SDS011;64505;51.458;7.556;2022-11-22T11:08:49;3.20;;;1.42;;
75774;SDS011;64505;51.458;7.556;2022-11-22T11:11:12;9.18;;;1.70;;
75774;SDS011;64505;51.458;7.556;2022-11-22T11:15:35;6.75;;;1.45;;
75774;SDS011;64505;51.458;7.556;2022-11-22T11:17:39;5.43;;;1.58;;
75774;SDS011;64505;51.458;7.556;2022-11-22T11:19:46;7.38;;;1.42;;
75774;SDS011;64505;51.458;7.556;2022-11-22T11:22:14;5.68;;;0.95;;
75774;SDS011;64505;51.458;7.556;2022-11-22T11:24:41;4.65;;;1.45;;
75774;SDS011;64505;51.458;7.556;2022-11-22T11:26:43;5.07;;;0.90;;
75774;SDS011;64505;51.458;7.556;2022-11-22T11:31:17;1.80;;;0.73;;
75774;SDS011;64505;51.458;7.556;2022-11-22T11:33:29;4.25;;;1.05;;
75774;SDS011;64505;51.458;7.556;2022-11-22T11:35:31;3.67;;;0.90;;
75774;SDS011;64505;51.458;7.556;2022-11-22T11:37:37;7.68;;;1.83;;
75774;SDS011;64505;51.458;7.556;2022-11-22T11:39:38;4.20;;;0.80;;
75774;SDS011;64505;51.458;7.556;2022-11-22T11:41:46;5.57;;;1.00;;
75774;SDS011;64505;51.458;7.556;2022-11-22T11:43:48;4.22;;;1.00;;
75774;SDS011;64505;51.458;7.556;2022-11-22T11:45:51;5.00;;;0.80;;
75774;SDS011;64505;51.458;7.556;2022-11-22T11:47:53;3.90;;;1.17;;
75774;SDS011;64505;51.458;7.556;2022-11-22T11:49:55;3.50;;;0.80;;
75774;SDS011;64505;51.458;7.556;2022-11-22T11:54:14;3.50;;;0.95;;
75774;SDS011;64505;51.458;7.556;2022-11-22T11:58:23;3.10;;;1.02;;
75774;SDS011;64505;51.458;7.556;2022-11-22T12:00:25;5.32;;;1.20;;
75774;SDS011;64505;51.458;7.556;2022-11-22T12:02:37;2.90;;;0.70;;
75774;SDS011;64505;51.458;7.556;2022-11-22T12:04:53;3.67;;;1.10;;
75774;SDS011;64505;51.458;7.556;2022-11-22T12:07:03;6.70;;;0.90;;
75774;SDS011;64505;51.458;7.556;2022-11-22T12:11:49;3.28;;;0.98;;
75774;SDS011;64505;51.458;7.556;2022-11-22T12:13:55;3.95;;;1.20;;
75774;SDS011;64505;51.458;7.556;2022-11-22T12:16:21;4.25;;;1.40;;
75774;SDS011;64505;51.458;7.556;2022-11-22T12:20:59;2.35;;;0.60;;
75774;SDS011;64505;51.458;7.556;2022-11-22T12:24:16;3.83;;;0.68;;
75774;SDS011;64505;51.458;7.556;2022-11-22T12:26:18;3.63;;;0.85;;
75774;SDS011;64505;51.458;7.556;2022-11-22T12:28:21;3.95;;;1.20;;
75774;SDS011;64505;51.458;7.556;2022-11-22T12:30:24;3.58;;;0.80;;
75774;SDS011;64505;51.458;7.556;2022-11-22T12:36:49;3.40;;;0.80;;
75774;SDS011;64505;51.458;7.556;2022-11-22T12:38:52;1.83;;;0.75;;
75774;SDS011;64505;51.458;7.556;2022-11-22T12:40:56;4.57;;;1.20;;
75774;SDS011;64505;51.458;7.556;2022-11-22T12:43:04;3.33;;;0.93;;
75774;SDS011;64505;51.458;7.556;2022-11-22T12:47:27;4.28;;;0.90;;
75774;SDS011;64505;51.458;7.556;2022-11-22T12:53:59;2.50;;;0.85;;
75774;SDS011;64505;51.458;7.556;2022-11-22T13:00:38;3.03;;;0.80;;
75774;SDS011;64505;51.458;7.556;2022-11-22T13:03:00;2.45;;;1.15;;
75774;SDS011;64505;51.458;7.556;2022-11-22T13:05:16;3.03;;;0.80;;
75774;SDS011;64505;51.458;7.556;2022-11-22T13:09:47;6.25;;;1.25;;
75774;SDS011;64505;51.458;7.556;2022-11-22T13:11:54;3.50;;;0.70;;
75774;SDS011;64505;51.458;7.556;2022-11-22T13:14:11;3.80;;;0.60;;
75774;SDS011;64505;51.458;7.556;2022-11-22T13:16:21;3.42;;;0.90;;
75774;SDS011;64505;51.458;7.556;2022-11-22T13:18:23;2.72;;;0.70;;
75774;SDS011;64505;51.458;7.556;2022-11-22T13:20:34;4.68;;;0.90;;
75774;SDS011;64505;51.458;7.556;2022-11-22T13:27:33;4.97;;;0.70;;
75774;SDS011;64505;51.458;7.556;2022-11-22T13:29:40;3.28;;;0.80;;
75774;SDS011;64505;51.458;7.556;2022-11-22T13:31:58;3.83;;;1.00;;
75774;SDS011;64505;51.458;7.556;2022-11-22T13:34:02;2.72;;;0.60;;
75774;SDS011;64505;51.458;7.556;2022-11-22T13:38:31;4.30;;;1.00;;
75774;SDS011;64505;51.458;7.556;2022-11-22T13:40:42;2.97;;;0.82;;
75774;SDS011;64505;51.458;7.556;2022-11-22T13:42:45;2.55;;;0.60;;
75774;SDS011;64505;51.458;7.556;2022-11-22T13:44:51;4.80;;;0.93;;
75774;SDS011;64505;51.458;7.556;2022-11-22T13:55:02;3.45;;;0.98;;
75774;SDS011;64505;51.458;7.556;2022-11-22T14:00:52;5.35;;;0.80;;
75774;SDS011;64505;51.458;7.556;2022-11-22T14:03:12;6.18;;;1.13;;
75774;SDS011;64505;51.458;7.556;2022-11-22T14:05:18;4.68;;;1.25;;